createdAt,value
2018-09-18T00:02:18.408Z,100690.06
2018-09-18T00:04:42.383Z,100686.52
2018-09-18T00:07:06.287Z,100692.53
2018-09-18T00:09:30.185Z,100689.93
2018-09-18T00:11:54.209Z,100683.53
2018-09-18T00:14:18.401Z,100686.16
2018-09-18T00:16:42.327Z,100683.77
2018-09-18T00:19:06.458Z,100681.85
2018-09-18T00:21:30.819Z,100683.91
2018-09-18T00:23:54.692Z,100683.58
2018-09-18T00:26:18.577Z,100675.89
2018-09-18T00:28:42.482Z,100680.05
2018-09-18T00:31:06.656Z,100675.18
2018-09-18T00:33:30.895Z,100676.64
2018-09-18T00:35:55.132Z,100672.06
2018-09-18T00:38:19.058Z,100675.11
2018-09-18T00:40:42.971Z,100673.95
2018-09-18T00:43:06.953Z,100671.64
2018-09-18T00:45:30.934Z,100667.97
2018-09-18T00:47:54.783Z,100670.82
2018-09-18T00:50:18.665Z,100674.78
2018-09-18T00:52:42.530Z,100671.97
2018-09-18T00:55:06.399Z,100669.66
2018-09-18T00:57:30.360Z,100665.94
2018-09-18T00:59:54.248Z,100671.52
2018-09-18T01:02:18.129Z,100665.58
2018-09-18T01:04:42.018Z,100666.50
2018-09-18T01:07:05.868Z,100666.34
2018-09-18T01:09:29.870Z,100660.86
2018-09-18T01:11:53.773Z,100661.41
2018-09-18T01:14:17.627Z,100662.09
2018-09-18T01:16:41.519Z,100653.59
2018-09-18T01:19:05.405Z,100664.61
2018-09-18T01:21:29.411Z,100658.54
2018-09-18T01:23:53.290Z,100657.11
2018-09-18T01:26:17.164Z,100648.23
2018-09-18T01:28:41.051Z,100653.20
2018-09-18T01:31:05.302Z,100656.88
2018-09-18T01:33:29.360Z,100652.90
2018-09-18T01:35:53.215Z,100656.52
2018-09-18T01:38:17.122Z,100609.55
2018-09-18T01:40:40.986Z,100646.38
2018-09-18T01:43:04.970Z,100643.89
2018-09-18T01:45:28.852Z,100649.58
2018-09-18T01:47:52.836Z,100648.62
2018-09-18T01:50:16.749Z,100643.57
2018-09-18T01:52:40.612Z,100640.34
2018-09-18T01:55:04.491Z,100643.14
2018-09-18T01:57:28.367Z,100643.44
2018-09-18T01:59:52.689Z,100644.03
2018-09-18T02:02:16.561Z,100645.66
2018-09-18T02:04:40.626Z,100636.20
2018-09-18T02:07:04.606Z,100628.26
2018-09-18T02:09:28.465Z,100630.91
2018-09-18T02:11:52.355Z,100625.80
2018-09-18T02:14:16.220Z,100631.82
2018-09-18T02:16:40.090Z,100629.47
2018-09-18T02:19:03.963Z,100624.33
2018-09-18T02:21:27.808Z,100619.16
2018-09-18T02:23:51.699Z,100622.70
2018-09-18T02:26:15.582Z,100615.51
2018-09-18T02:28:39.530Z,100613.89
2018-09-18T02:31:03.394Z,100616.69
2018-09-18T02:33:27.434Z,100615.93
2018-09-18T02:35:51.324Z,100610.89
2018-09-18T02:38:15.188Z,100614.53
2018-09-18T02:40:39.168Z,100611.70
2018-09-18T02:43:03.038Z,100607.53
2018-09-18T02:45:26.908Z,100609.52
2018-09-18T02:47:50.782Z,100603.96
2018-09-18T02:50:14.794Z,100606.20
2018-09-18T02:52:38.859Z,100607.02
2018-09-18T02:55:02.732Z,100607.73
2018-09-18T02:57:26.660Z,100606.22
2018-09-18T02:59:50.538Z,100607.77
2018-09-18T03:02:14.522Z,100602.99
2018-09-18T03:04:38.429Z,100601.99
2018-09-18T03:07:02.327Z,100602.00
2018-09-18T03:09:26.355Z,100599.49
2018-09-18T03:11:50.228Z,100597.97
2018-09-18T03:14:14.135Z,100599.22
2018-09-18T03:16:38.046Z,100594.69
2018-09-18T03:19:02.211Z,100593.93
2018-09-18T03:21:26.138Z,100595.48
2018-09-18T03:23:50.000Z,100600.02
2018-09-18T03:26:13.906Z,100599.20
2018-09-18T03:28:37.911Z,100595.02
2018-09-18T03:31:01.821Z,100596.91
2018-09-18T03:33:25.692Z,100591.62
2018-09-18T03:35:49.708Z,100583.52
2018-09-18T03:38:13.792Z,100587.72
2018-09-18T03:40:37.693Z,100587.75
2018-09-18T03:43:01.599Z,100583.88
2018-09-18T03:45:25.494Z,100582.44
2018-09-18T03:47:49.373Z,100576.73
2018-09-18T03:50:13.309Z,100584.32
2018-09-18T03:52:37.308Z,100584.48
2018-09-18T03:55:01.167Z,100579.97
2018-09-18T03:57:25.111Z,100580.91
2018-09-18T03:59:48.998Z,100573.78
2018-09-18T04:02:12.866Z,100579.52
2018-09-18T04:04:36.792Z,100570.20
2018-09-18T04:07:00.679Z,100573.14
2018-09-18T04:09:24.617Z,100573.92
2018-09-18T04:11:48.506Z,100566.64
2018-09-18T04:14:12.491Z,100568.34
2018-09-18T04:16:36.419Z,100565.84
2018-09-18T04:19:00.420Z,100559.16
2018-09-18T04:21:28.480Z,100559.46
2018-09-18T04:23:52.391Z,100554.98
2018-09-18T04:26:16.305Z,100554.99
2018-09-18T04:28:40.186Z,100556.38
2018-09-18T04:31:04.122Z,100560.89
2018-09-18T04:33:27.990Z,100559.95
2018-09-18T04:35:51.874Z,100565.23
2018-09-18T04:38:18.730Z,100567.41
2018-09-18T04:40:42.626Z,100562.14
2018-09-18T04:43:06.513Z,100568.04
2018-09-18T04:45:30.728Z,100571.16
2018-09-18T04:47:54.640Z,100569.13
2018-09-18T04:50:18.658Z,100564.14
2018-09-18T04:52:42.918Z,100562.44
2018-09-18T04:55:06.872Z,100564.61
2018-09-18T04:57:30.717Z,100560.25
2018-09-18T04:59:54.690Z,100562.91
2018-09-18T05:02:18.600Z,100547.54
2018-09-18T05:04:42.457Z,100557.62
2018-09-18T05:07:06.387Z,100557.79
2018-09-18T05:09:30.264Z,100555.78
2018-09-18T05:11:54.345Z,100565.87
2018-09-18T05:14:18.248Z,100563.21
2018-09-18T05:16:42.160Z,100566.33
2018-09-18T05:19:06.084Z,100562.59
2018-09-18T05:21:30.024Z,100562.45
2018-09-18T05:23:53.965Z,100567.11
2018-09-18T05:26:17.880Z,100560.72
2018-09-18T05:28:41.769Z,100567.73
2018-09-18T05:31:05.693Z,100560.09
2018-09-18T05:33:29.651Z,100561.22
2018-09-18T05:35:53.589Z,100561.67
2018-09-18T05:38:17.523Z,100557.00
2018-09-18T05:40:41.378Z,100558.08
2018-09-18T05:43:05.455Z,100553.45
2018-09-18T05:45:29.320Z,100556.20
2018-09-18T05:47:53.329Z,100559.17
2018-09-18T05:50:17.193Z,100555.13
2018-09-18T05:52:41.132Z,100511.78
2018-09-18T05:55:05.256Z,100550.28
2018-09-18T05:57:29.138Z,100556.48
2018-09-18T05:59:53.009Z,100542.64
2018-09-18T06:02:16.963Z,100546.67
2018-09-18T06:04:41.022Z,100542.45
2018-09-18T06:07:04.901Z,100536.87
2018-09-18T06:09:28.807Z,100539.36
2018-09-18T06:11:52.697Z,100544.33
2018-09-18T06:14:16.589Z,100538.41
2018-09-18T06:16:40.476Z,100546.31
2018-09-18T06:19:04.546Z,100534.98
2018-09-18T06:21:28.411Z,100536.83
2018-09-18T06:23:52.307Z,100536.44
2018-09-18T06:26:16.320Z,100539.52
2018-09-18T06:28:40.193Z,100546.63
2018-09-18T06:31:04.082Z,100541.75
2018-09-18T06:33:27.985Z,100537.45
2018-09-18T06:35:52.296Z,100536.95
2018-09-18T06:38:16.183Z,100536.55
2018-09-18T06:40:40.052Z,100537.17
2018-09-18T06:43:03.939Z,100527.38
2018-09-18T06:45:27.844Z,100529.61
2018-09-18T06:47:51.759Z,100533.20
2018-09-18T06:50:15.668Z,100528.69
2018-09-18T06:52:39.652Z,100533.02
2018-09-18T06:55:03.512Z,100537.56
2018-09-18T06:57:27.469Z,100535.20
2018-09-18T06:59:51.337Z,100529.56
2018-09-18T07:02:16.462Z,100527.45
2018-09-18T07:04:40.401Z,100527.91
2018-09-18T07:07:04.276Z,100529.32
2018-09-18T07:09:28.171Z,100529.56
2018-09-18T07:11:52.031Z,100529.56
2018-09-18T07:14:15.966Z,100526.27
2018-09-18T07:16:39.963Z,100522.76
2018-09-18T07:19:03.834Z,100522.47
2018-09-18T07:21:27.713Z,100521.03
2018-09-18T07:23:51.605Z,100520.39
2018-09-18T07:26:15.467Z,100516.86
2018-09-18T07:28:39.350Z,100522.67
2018-09-18T07:31:03.346Z,100519.90
2018-09-18T07:33:27.228Z,100521.03
2018-09-18T07:35:51.108Z,100518.61
2018-09-18T07:38:14.970Z,100522.85
2018-09-18T07:40:38.856Z,100524.59
2018-09-18T07:43:03.057Z,100527.84
2018-09-18T07:45:26.931Z,100523.78
2018-09-18T07:47:50.819Z,100524.49
2018-09-18T07:50:14.998Z,100524.41
2018-09-18T07:52:38.913Z,100521.48
2018-09-18T07:55:02.794Z,100529.23
2018-09-18T07:57:26.742Z,100529.36
2018-09-18T07:59:50.584Z,100527.33
2018-09-18T08:02:14.818Z,100525.01
2018-09-18T08:04:38.704Z,100527.95
2018-09-18T08:07:02.663Z,100525.22
2018-09-18T08:09:26.616Z,100527.01
2018-09-18T08:11:50.531Z,100515.24
2018-09-18T08:14:14.589Z,100511.94
2018-09-18T08:16:38.497Z,100510.06
2018-09-18T08:19:02.478Z,100511.01
2018-09-18T08:21:26.494Z,100509.16
2018-09-18T08:23:50.364Z,100512.36
2018-09-18T08:26:14.276Z,100516.11
2018-09-18T08:28:38.138Z,100505.78
2018-09-18T08:31:02.009Z,100504.38
2018-09-18T08:33:26.004Z,100504.43
2018-09-18T08:35:49.891Z,100503.28
2018-09-18T08:38:13.791Z,100497.16
2018-09-18T08:40:37.721Z,100499.00
2018-09-18T08:43:01.606Z,100499.73
2018-09-18T08:45:25.564Z,100499.72
2018-09-18T08:47:49.499Z,100504.94
2018-09-18T08:50:13.385Z,100509.30
2018-09-18T08:52:37.401Z,100509.59
2018-09-18T08:55:01.260Z,100504.70
2018-09-18T08:57:25.287Z,100504.31
2018-09-18T08:59:49.109Z,100504.05
2018-09-18T09:02:13.028Z,100503.73
2018-09-18T09:04:37.054Z,100507.96
2018-09-18T09:07:01.003Z,100497.27
2018-09-18T09:09:24.950Z,100504.92
2018-09-18T09:11:49.042Z,100502.02
2018-09-18T09:14:12.956Z,100495.47
2018-09-18T09:16:36.839Z,100493.33
2018-09-18T09:19:00.957Z,100496.20
2018-09-18T09:21:24.946Z,100496.51
2018-09-18T09:23:48.770Z,100487.19
2018-09-18T09:26:12.787Z,100497.42
2018-09-18T09:28:36.656Z,100506.52
2018-09-18T09:31:00.581Z,100493.43
2018-09-18T09:33:24.521Z,100491.06
2018-09-18T09:35:48.424Z,100494.77
2018-09-18T09:38:12.410Z,100488.62
2018-09-18T09:40:36.293Z,100497.18
2018-09-18T09:43:00.162Z,100484.25
2018-09-18T09:45:24.072Z,100491.16
2018-09-18T09:47:47.978Z,100487.57
2018-09-18T09:50:12.029Z,100488.87
2018-09-18T09:52:35.929Z,100485.51
2018-09-18T09:54:59.820Z,100478.50
2018-09-18T09:57:23.696Z,100473.33
2018-09-18T09:59:47.572Z,100470.39
2018-09-18T10:02:18.884Z,100468.80
2018-09-18T10:04:42.754Z,100471.64
2018-09-18T10:07:06.667Z,100463.55
2018-09-18T10:09:30.566Z,100456.83
2018-09-18T10:11:54.471Z,100455.15
2018-09-18T10:14:18.531Z,100453.61
2018-09-18T10:16:42.439Z,100442.02
2018-09-18T10:19:06.387Z,100443.47
2018-09-18T10:21:30.372Z,100437.97
2018-09-18T10:23:54.311Z,100433.55
2018-09-18T10:26:18.550Z,100430.51
2018-09-18T10:28:42.313Z,100429.02
2018-09-18T10:31:06.180Z,100425.79
2018-09-18T10:33:30.266Z,100423.86
2018-09-18T10:35:54.242Z,100425.35
2018-09-18T10:38:18.221Z,100421.95
2018-09-18T10:40:42.281Z,100414.52
2018-09-18T10:43:06.240Z,100414.52
2018-09-18T10:45:30.114Z,100413.08
2018-09-18T10:47:53.999Z,100409.38
2018-09-18T10:50:17.920Z,100400.56
2018-09-18T10:52:41.848Z,100400.08
2018-09-18T10:55:05.715Z,100401.00
2018-09-18T10:57:29.703Z,100405.47
2018-09-18T10:59:53.592Z,100394.53
2018-09-18T11:02:17.633Z,100397.77
2018-09-18T11:04:41.382Z,100387.77
2018-09-18T11:07:05.576Z,100394.30
2018-09-18T11:09:29.500Z,100381.66
2018-09-18T11:11:53.349Z,100380.70
2018-09-18T11:14:17.675Z,100380.30
2018-09-18T11:16:41.736Z,100388.66
2018-09-18T11:19:05.583Z,100379.86
2018-09-18T11:21:29.539Z,100382.86
2018-09-18T11:23:53.419Z,100375.97
2018-09-18T11:26:17.263Z,100377.34
2018-09-18T11:28:41.176Z,100378.52
2018-09-18T11:31:05.020Z,100366.32
2018-09-18T11:33:29.052Z,100378.41
2018-09-18T11:35:52.918Z,100370.97
2018-09-18T11:38:16.785Z,100364.92
2018-09-18T11:40:40.698Z,100362.22
2018-09-18T11:43:04.585Z,100360.71
2018-09-18T11:45:28.547Z,100356.20
2018-09-18T11:47:52.382Z,100356.80
2018-09-18T11:50:16.277Z,100359.37
2018-09-18T11:52:40.293Z,100348.69
2018-09-18T11:55:04.253Z,100353.66
2018-09-18T11:57:28.168Z,100364.12
2018-09-18T11:59:52.175Z,100351.17
2018-09-18T12:02:16.075Z,100345.88
2018-09-18T12:04:40.090Z,100351.91
2018-09-18T12:07:03.835Z,100334.41
2018-09-18T12:09:27.762Z,100326.06
2018-09-18T12:11:51.625Z,100340.47
2018-09-18T12:14:15.483Z,100318.92
2018-09-18T12:16:39.442Z,100308.98
2018-09-18T12:19:03.419Z,100322.53
2018-09-18T12:21:27.313Z,100325.27
2018-09-18T12:23:51.204Z,100322.70
2018-09-18T12:26:15.082Z,100318.23
2018-09-18T12:28:39.124Z,100316.53
2018-09-18T12:31:05.118Z,100317.31
2018-09-18T12:33:32.888Z,100309.77
2018-09-18T12:35:56.796Z,100311.60
2018-09-18T12:38:20.695Z,100314.56
2018-09-18T12:40:44.559Z,100314.22
2018-09-18T12:43:08.475Z,100306.69
2018-09-18T12:45:32.640Z,100309.45
2018-09-18T12:47:56.592Z,100308.22
2018-09-18T12:50:20.627Z,100306.38
2018-09-18T12:52:44.359Z,100307.98
2018-09-18T12:55:08.264Z,100299.02
2018-09-18T12:57:32.294Z,100294.13
2018-09-18T12:59:56.162Z,100284.19
2018-09-18T13:02:20.004Z,100290.53
2018-09-18T13:04:43.878Z,100291.98
2018-09-18T13:07:07.894Z,100279.55
2018-09-18T13:09:31.680Z,100269.83
2018-09-18T13:11:55.623Z,100263.83
2018-09-18T13:14:19.727Z,100255.58
2018-09-18T13:16:43.556Z,100250.30
2018-09-18T13:19:07.471Z,100260.78
2018-09-18T13:21:31.466Z,100255.50
2018-09-18T13:23:55.304Z,100255.50
2018-09-18T13:26:19.248Z,100251.71
2018-09-18T13:28:43.122Z,100257.59
2018-09-18T13:31:07.039Z,100247.88
2018-09-18T13:33:30.948Z,100248.22
2018-09-18T13:35:54.863Z,100257.52
2018-09-18T13:38:18.735Z,100245.70
2018-09-18T13:40:42.658Z,100254.58
2018-09-18T13:43:06.545Z,100250.50
2018-09-18T13:45:30.498Z,100265.83
2018-09-18T13:47:54.340Z,100246.23
2018-09-18T13:50:18.308Z,100231.93
2018-09-18T13:52:42.234Z,100235.96
2018-09-18T13:55:06.193Z,100231.97
2018-09-18T13:57:30.093Z,100228.09
2018-09-18T13:59:54.112Z,100219.55
2018-09-18T14:02:18.145Z,100217.05
2018-09-18T14:04:41.902Z,100218.62
2018-09-18T14:07:05.798Z,100217.31
2018-09-18T14:09:29.729Z,100218.05
2018-09-18T14:11:53.609Z,100208.52
2018-09-18T14:14:17.602Z,100206.14
2018-09-18T14:16:41.468Z,100209.09
2018-09-18T14:19:05.387Z,100203.11
2018-09-18T14:21:29.272Z,100216.84
2018-09-18T14:23:53.183Z,100203.54
2018-09-18T14:26:17.230Z,100210.72
2018-09-18T14:28:41.083Z,100208.22
2018-09-18T14:31:04.984Z,100224.50
2018-09-18T14:33:28.913Z,100206.00
2018-09-18T14:35:52.810Z,100203.52
2018-09-18T14:38:16.893Z,100205.06
2018-09-18T14:40:40.723Z,100210.00
2018-09-18T14:43:04.579Z,100218.97
2018-09-18T14:45:28.522Z,100216.41
2018-09-18T14:47:52.428Z,100202.17
2018-09-18T14:50:16.433Z,100198.70
2018-09-18T14:52:40.395Z,100199.86
2018-09-18T14:55:04.256Z,100198.01
2018-09-18T14:57:28.210Z,100201.08
2018-09-18T14:59:52.084Z,100195.82
2018-09-18T15:02:16.106Z,100195.87
2018-09-18T15:04:39.958Z,100189.20
2018-09-18T15:07:03.898Z,100189.55
2018-09-18T15:09:27.777Z,100188.69
2018-09-18T15:11:51.650Z,100197.15
2018-09-18T15:14:15.747Z,100186.66
2018-09-18T15:16:39.619Z,100185.11
2018-09-18T15:19:03.439Z,100189.94
2018-09-18T15:21:27.390Z,100185.14
2018-09-18T15:23:51.275Z,100182.90
2018-09-18T15:26:15.250Z,100176.30
2018-09-18T15:28:39.142Z,100170.19
2018-09-18T15:31:03.306Z,100176.19
2018-09-18T15:33:27.306Z,100150.45
2018-09-18T15:35:51.197Z,100176.22
2018-09-18T15:38:15.171Z,100178.09
2018-09-18T15:40:39.074Z,100167.93
2018-09-18T15:43:03.024Z,100175.13
2018-09-18T15:45:27.166Z,100166.92
2018-09-18T15:47:51.049Z,100172.37
2018-09-18T15:50:15.008Z,100168.42
2018-09-18T15:52:39.160Z,100160.56
2018-09-18T15:55:03.105Z,100165.42
2018-09-18T15:57:26.987Z,100163.70
2018-09-18T15:59:50.885Z,100156.12
2018-09-18T16:02:14.771Z,100158.96
2018-09-18T16:04:38.864Z,100161.08
2018-09-18T16:07:02.741Z,100157.85
2018-09-18T16:09:26.847Z,100151.74
2018-09-18T16:11:50.766Z,100153.24
2018-09-18T16:14:14.712Z,100149.55
2018-09-18T16:16:38.728Z,100150.34
2018-09-18T16:19:02.713Z,100148.66
2018-09-18T16:21:26.714Z,100146.77
2018-09-18T16:23:50.625Z,100144.22
2018-09-18T16:26:14.499Z,100149.16
2018-09-18T16:28:38.429Z,100140.72
2018-09-18T16:31:02.320Z,100144.27
2018-09-18T16:33:26.324Z,100154.14
2018-09-18T16:35:50.282Z,100143.02
2018-09-18T16:38:14.181Z,100138.00
2018-09-18T16:40:38.156Z,100147.69
2018-09-18T16:43:02.216Z,100151.95
2018-09-18T16:45:26.254Z,100131.73
2018-09-18T16:47:50.345Z,100145.45
2018-09-18T16:50:14.290Z,100140.77
2018-09-18T16:52:38.369Z,100141.52
2018-09-18T16:55:02.378Z,100143.80
2018-09-18T16:57:26.285Z,100147.58
2018-09-18T16:59:50.179Z,100147.08
2018-09-18T17:02:14.079Z,100147.66
2018-09-18T17:04:38.125Z,100143.25
2018-09-18T17:07:02.139Z,100151.37
2018-09-18T17:09:26.166Z,100147.31
2018-09-18T17:11:50.075Z,100151.10
2018-09-18T17:14:14.489Z,100153.66
2018-09-18T17:16:38.425Z,100157.27
2018-09-18T17:19:02.297Z,100160.16
2018-09-18T17:21:26.216Z,100158.66
2018-09-18T17:23:50.207Z,100160.40
2018-09-18T17:26:14.105Z,100156.12
2018-09-18T17:28:38.126Z,100161.10
2018-09-18T17:31:01.950Z,100167.98
2018-09-18T17:33:25.919Z,100166.73
2018-09-18T17:35:49.957Z,100176.91
2018-09-18T17:38:13.879Z,100171.42
2018-09-18T17:40:37.841Z,100172.28
2018-09-18T17:43:01.749Z,100172.23
2018-09-18T17:45:25.741Z,100168.70
2018-09-18T17:47:49.779Z,100175.47
2018-09-18T17:50:13.779Z,100176.84
2018-09-18T17:52:37.765Z,100185.42
2018-09-18T17:55:01.748Z,100185.61
2018-09-18T17:57:25.688Z,100187.47
2018-09-18T17:59:49.714Z,100182.08
2018-09-18T18:02:13.627Z,100184.50
2018-09-18T18:04:37.732Z,100187.26
2018-09-18T18:07:02.055Z,100192.30
2018-09-18T18:09:26.023Z,100192.78
2018-09-18T18:11:50.000Z,100197.34
2018-09-18T18:14:14.417Z,100191.61
2018-09-18T18:16:38.352Z,100195.58
2018-09-18T18:19:02.305Z,100197.54
2018-09-18T18:21:26.300Z,100202.58
2018-09-18T18:23:50.201Z,100199.58
2018-09-18T18:26:14.290Z,100202.97
2018-09-18T18:28:38.234Z,100208.36
2018-09-18T18:31:02.146Z,100207.49
2018-09-18T18:33:26.128Z,100207.75
2018-09-18T18:35:50.063Z,100214.40
2018-09-18T18:38:14.024Z,100214.73
2018-09-18T18:40:37.915Z,100224.16
2018-09-18T18:43:01.818Z,100222.80
2018-09-18T18:45:25.748Z,100225.95
2018-09-18T18:47:49.730Z,100230.87
2018-09-18T18:50:13.749Z,100236.07
2018-09-18T18:52:37.748Z,100232.69
2018-09-18T18:55:01.690Z,100243.80
2018-09-18T18:57:25.765Z,100248.86
2018-09-18T18:59:49.687Z,100248.05
2018-09-18T19:02:13.714Z,100248.41
2018-09-18T19:04:37.762Z,100254.37
2018-09-18T19:07:32.431Z,100262.53
2018-09-18T19:09:56.448Z,100237.50
2018-09-18T19:12:20.486Z,100264.17
2018-09-18T19:14:44.466Z,100266.42
2018-09-18T19:17:08.439Z,100267.82
2018-09-18T19:19:32.386Z,100266.50
2018-09-18T19:21:56.350Z,100268.78
2018-09-18T19:24:20.372Z,100276.04
2018-09-18T19:26:44.420Z,100273.18
2018-09-18T19:29:08.345Z,100277.12
2018-09-18T19:31:32.279Z,100277.22
2018-09-18T19:33:56.266Z,100274.55
2018-09-18T19:36:20.318Z,100280.85
2018-09-18T19:38:44.246Z,100277.03
2018-09-18T19:41:08.152Z,100282.77
2018-09-18T19:43:32.088Z,100282.55
2018-09-18T19:45:56.008Z,100285.14
2018-09-18T19:48:20.097Z,100285.88
2018-09-18T19:50:44.018Z,100288.70
2018-09-18T19:53:07.935Z,100293.38
2018-09-18T19:55:31.891Z,100302.53
2018-09-18T19:57:55.904Z,100306.26
2018-09-18T20:00:19.925Z,100308.77
2018-09-18T20:02:43.910Z,100319.38
2018-09-18T20:05:07.944Z,100317.17
2018-09-18T20:07:31.871Z,100316.59
2018-09-18T20:09:55.816Z,100313.31
2018-09-18T20:12:19.870Z,100314.16
2018-09-18T20:14:43.833Z,100316.27
2018-09-18T20:17:07.728Z,100320.28
2018-09-18T20:19:31.790Z,100318.80
2018-09-18T20:21:55.759Z,100326.17
2018-09-18T20:24:19.673Z,100334.36
2018-09-18T20:26:43.596Z,100336.98
2018-09-18T20:29:07.805Z,100337.12
2018-09-18T20:31:31.750Z,100337.89
2018-09-18T20:33:55.738Z,100352.97
2018-09-18T20:36:19.903Z,100350.89
2018-09-18T20:38:43.721Z,100358.78
2018-09-18T20:41:07.815Z,100358.95
2018-09-18T20:43:31.778Z,100367.39
2018-09-18T20:45:55.679Z,100365.19
2018-09-18T20:48:19.723Z,100373.19
2018-09-18T20:50:43.714Z,100372.13
2018-09-18T20:53:07.543Z,100373.93
2018-09-18T20:55:31.463Z,100385.98
2018-09-18T20:57:55.392Z,100388.80
2018-09-18T21:00:19.407Z,100391.71
2018-09-18T21:02:43.340Z,100399.91
2018-09-18T21:05:07.215Z,100401.41
2018-09-18T21:07:31.161Z,100406.97
2018-09-18T21:09:55.024Z,100407.55
2018-09-18T21:12:20.035Z,100412.05
2018-09-18T21:14:43.917Z,100423.59
2018-09-18T21:17:07.864Z,100428.41
2018-09-18T21:19:31.783Z,100430.91
2018-09-18T21:21:55.677Z,100430.09
2018-09-18T21:24:19.650Z,100437.56
2018-09-18T21:26:43.554Z,100444.44
2018-09-18T21:29:07.587Z,100456.32
2018-09-18T21:31:31.501Z,100454.14
2018-09-18T21:33:55.388Z,100464.97
2018-09-18T21:36:19.391Z,100464.64
2018-09-18T21:38:43.287Z,100466.10
2018-09-18T21:41:07.223Z,100471.14
2018-09-18T21:43:31.711Z,100471.05
2018-09-18T21:45:55.641Z,100478.25
2018-09-18T21:48:19.547Z,100472.84
2018-09-18T21:50:43.611Z,100474.03
2018-09-18T21:53:09.345Z,100479.91
2018-09-18T21:55:33.260Z,100480.84
2018-09-18T21:57:57.256Z,100493.09
2018-09-18T22:00:21.124Z,100489.62
2018-09-18T22:02:44.995Z,100496.42
2018-09-18T22:05:09.014Z,100499.09
2018-09-18T22:07:32.915Z,100507.34
2018-09-18T22:09:56.841Z,100513.12
2018-09-18T22:12:20.767Z,100524.66
2018-09-18T22:14:44.705Z,100527.56
2018-09-18T22:17:08.703Z,100543.50
2018-09-18T22:19:32.613Z,100547.84
2018-09-18T22:21:56.521Z,100550.58
2018-09-18T22:24:20.468Z,100553.42
2018-09-18T22:26:44.374Z,100552.00
2018-09-18T22:29:08.376Z,100560.16
2018-09-18T22:31:32.244Z,100570.28
2018-09-18T22:33:56.092Z,100564.67
2018-09-18T22:36:19.986Z,100563.38
2018-09-18T22:38:43.870Z,100564.67
2018-09-18T22:41:07.764Z,100565.56
2018-09-18T22:43:31.642Z,100567.19
2018-09-18T22:45:55.551Z,100566.39
2018-09-18T22:48:19.457Z,100568.03
2018-09-18T22:50:43.470Z,100572.31
2018-09-18T22:53:07.376Z,100586.58
2018-09-18T22:55:31.292Z,100581.83
2018-09-18T22:57:55.351Z,100584.89
2018-09-18T23:00:19.217Z,100584.89
2018-09-18T23:02:43.128Z,100585.59
2018-09-18T23:05:07.377Z,100589.63
2018-09-18T23:07:31.257Z,100596.02
2018-09-18T23:10:01.888Z,100597.26
2018-09-18T23:12:25.803Z,100599.78
2018-09-18T23:14:49.724Z,100596.60
2018-09-18T23:17:13.666Z,100600.05
2018-09-18T23:19:37.517Z,100594.50
2018-09-18T23:22:01.481Z,100594.99
2018-09-18T23:24:25.344Z,100599.30
2018-09-18T23:26:49.218Z,100596.55
2018-09-18T23:29:13.183Z,100605.52
2018-09-18T23:31:37.596Z,100601.17
2018-09-18T23:34:01.507Z,100602.20
2018-09-18T23:36:25.438Z,100599.00
2018-09-18T23:38:49.343Z,100605.58
2018-09-18T23:41:13.264Z,100601.45
2018-09-18T23:43:37.149Z,100599.64
2018-09-18T23:46:01.037Z,100602.50
2018-09-18T23:48:24.981Z,100607.61
2018-09-18T23:50:48.872Z,100615.40
2018-09-18T23:53:12.774Z,100621.91
2018-09-18T23:55:36.677Z,100617.11
2018-09-18T23:58:00.619Z,100624.92
